Brunswick, Indiana
Current Conditions -  °F | °C
As of 2:35 AM on Sunday 23 Nov 2014 (Local Time) from KGYY Reporting Station
Overcast Overcast  
Wind Chill: 52°   Ceiling: 4000
Heat Index: 52°   Visibility: 10mi
Dew Point: 46°   Wind: 9mph
Humidity: 81%   Direction: 170°S
Pressure: 29.84"   Gusts: NA
Location:  41.596°N, 87.4118°W
Report Text: KGYY 230835Z AUTO 17008KT 10SM BKN040 BKN080 OVC090 11/08 A2984 RMK AO2 T01090077
Loading
Personal Weather Stations






























Interactive Weather Map New forecast layout! Learn more

10-Day Weather Forecast

Advertisements
Track Severe Weather on mobile